Time;durP1;ratioP1;P1;durP2;ratioP2;P2;SDS_P1;SDS_P2;PMS_P1;PMS_P2;Temp;Humidity;BMP_temperature;BMP_pressure;BME280_temperature;BME280_humidity;BME280_pressure;Samples;Min_cycle;Max_cycle;Signal;HPM_P1;HPM_P2
2019/07/08 00:02:32;;;;;;;1.4;1.2;;;;;;;31.22;35.44043;1002.171;;;;
2019/07/08 00:04:58;;;;;;;2.9;1.2;;;;;;;31.22;35.46484;1002.172;;;;
2019/07/08 00:07:24;;;;;;;2;1.2;;;;;;;31.22;35.6123;1002.201;;;;
2019/07/08 00:10:42;;;;;;;1.5;1.3;;;;;;;31.21;35.78223;1002.163;;;;
2019/07/08 00:13:08;;;;;;;2.9;1.3;;;;;;;31.19;35.8916;1002.112;;;;
2019/07/08 00:15:34;;;;;;;1.2;1.1;;;;;;;31.18;35.8418;1002.156;;;;
2019/07/08 00:16:12;;;;;;;2.6;1.3;;;;;;;31.19;35.80566;1002.168;;;;
2019/07/08 00:18:36;;;;;;;1.5;1.1;;;;;;;31.18;35.90332;1002.223;;;;
2019/07/08 00:21:01;;;;;;;2.8;1.4;;;;;;;31.18;35.81836;1002.239;;;;
2019/07/08 00:24:20;;;;;;;1.7;1.2;;;;;;;31.17;35.85449;1002.204;;;;
2019/07/08 00:26:46;;;;;;;1.4;1.2;;;;;;;31.18;35.74414;1002.195;;;;
2019/07/08 00:27:13;;;;;;;1.3;1.2;;;;;;;31.17;35.71875;1002.178;;;;
2019/07/08 00:29:38;;;;;;;1.8;1.3;;;;;;;31.19;35.70801;1002.177;;;;
2019/07/08 00:32:04;;;;;;;1.7;1.1;;;;;;;31.2;35.63574;1002.166;;;;
2019/07/08 00:34:29;;;;;;;2;1.3;;;;;;;31.2;35.59863;1002.119;;;;
2019/07/08 00:34:48;;;;;;;1.6;1.2;;;;;;;31.21;35.61035;1002.128;;;;
2019/07/08 00:37:14;;;;;;;2;1.3;;;;;;;31.21;35.61133;1002.074;;;;
2019/07/08 00:39:39;;;;;;;2.5;1.2;;;;;;;31.21;35.53809;1002.089;;;;
2019/07/08 00:42:03;;;;;;;1.6;1.1;;;;;;;31.21;35.61133;1002.163;;;;
2019/07/08 00:44:28;;;;;;;1.7;1.2;;;;;;;31.22;35.58789;1002.228;;;;
2019/07/08 00:46:57;;;;;;;1.7;1.3;;;;;;;31.2;35.72168;1002.186;;;;
2019/07/08 00:49:20;;;;;;;1.8;1.1;;;;;;;31.21;35.72168;1002.173;;;;
2019/07/08 00:52:39;;;;;;;1.7;1.2;;;;;;;31.21;35.73438;1002.179;;;;
2019/07/08 00:55:05;;;;;;;2;1.2;;;;;;;31.2;35.66016;1002.161;;;;
2019/07/08 00:57:30;;;;;;;1.2;1.1;;;;;;;31.21;35.62402;1002.221;;;;
2019/07/08 00:59:56;;;;;;;1.8;1.1;;;;;;;31.2;35.62305;1002.196;;;;
2019/07/08 01:02:22;;;;;;;2.2;1.3;;;;;;;31.2;35.72168;1002.205;;;;
2019/07/08 01:04:48;;;;;;;1.3;1;;;;;;;31.2;35.63574;1002.151;;;;
2019/07/08 01:08:07;;;;;;;1.3;1.1;;;;;;;31.18;35.68262;1002.154;;;;
2019/07/08 01:10:32;;;;;;;1.4;1.2;;;;;;;31.18;35.71973;1002.087;;;;
2019/07/08 01:12:56;;;;;;;1.8;1.3;;;;;;;31.18;35.69434;1002.074;;;;
2019/07/08 01:15:21;;;;;;;1.3;1.2;;;;;;;31.19;35.65918;1002.096;;;;
2019/07/08 01:17:53;;;;;;;1.4;1;;;;;;;31.2;35.56152;1002.091;;;;
2019/07/08 01:20:13;;;;;;;2.7;1.1;;;;;;;31.2;35.58594;1002.1;;;;
2019/07/08 01:22:39;;;;;;;1.8;1.1;;;;;;;31.19;35.70801;1002.094;;;;
2019/07/08 01:25:05;;;;;;;1.5;1.3;;;;;;;31.19;35.70898;1002.142;;;;
2019/07/08 01:27:31;;;;;;;1.5;1.3;;;;;;;31.19;35.68359;1002.182;;;;
2019/07/08 01:29:57;;;;;;;2.1;0.9;;;;;;;31.19;35.64648;1002.185;;;;
2019/07/08 01:33:16;;;;;;;2.1;1.2;;;;;;;31.18;35.70801;1002.207;;;;
2019/07/08 01:35:43;;;;;;;3.2;1.3;;;;;;;31.18;35.64648;1002.193;;;;
2019/07/08 01:38:09;;;;;;;2;1.1;;;;;;;31.17;35.64551;1002.201;;;;
2019/07/08 01:40:34;;;;;;;2.7;1.2;;;;;;;31.18;35.62207;1002.281;;;;
2019/07/08 01:43:52;;;;;;;1.7;1.3;;;;;;;31.17;35.62109;1002.271;;;;
2019/07/08 01:46:18;;;;;;;2.3;1.2;;;;;;;31.18;35.58398;1002.301;;;;
2019/07/08 01:46:22;;;;;;;2.5;1.2;;;;;;;31.18;35.58398;1002.281;;;;
2019/07/08 01:48:48;;;;;;;2.2;1.2;;;;;;;31.18;35.53613;1002.309;;;;
2019/07/08 01:51:14;;;;;;;1.8;1.2;;;;;;;31.17;35.44922;1002.403;;;;
2019/07/08 01:53:40;;;;;;;1.6;1.1;;;;;;;31.18;35.40039;1002.372;;;;
2019/07/08 01:57:01;;;;;;;3.9;1.2;;;;;;;31.18;35.37598;1002.326;;;;
2019/07/08 02:00:20;;;;;;;1.4;1.2;;;;;;;31.16;35.3252;1002.355;;;;
2019/07/08 02:02:46;;;;;;;1.6;1.2;;;;;;;31.16;35.23926;1002.378;;;;
2019/07/08 02:05:10;;;;;;;2.1;1.3;;;;;;;31.17;35.22852;1002.384;;;;
2019/07/08 02:07:36;;;;;;;1.8;1.1;;;;;;;31.16;35.25098;1002.449;;;;
2019/07/08 02:10:01;;;;;;;1.9;1.3;;;;;;;31.16;35.17773;1002.495;;;;
2019/07/08 02:12:26;;;;;;;2.4;1;;;;;;;31.15;35.11621;1002.511;;;;
2019/07/08 02:15:46;;;;;;;1.6;1.1;;;;;;;31.14;34.99219;1002.5;;;;
2019/07/08 02:18:10;;;;;;;2.2;1.3;;;;;;;31.14;34.90625;1002.47;;;;
2019/07/08 02:20:36;;;;;;;2.1;1.2;;;;;;;31.14;34.82129;1002.408;;;;
2019/07/08 02:20:57;;;;;;;2.9;1.3;;;;;;;31.14;34.83301;1002.412;;;;
2019/07/08 02:23:23;;;;;;;2;1.3;;;;;;;31.14;34.73535;1002.413;;;;
2019/07/08 02:25:49;;;;;;;2.8;1.6;;;;;;;31.13;34.48828;1002.398;;;;
2019/07/08 02:28:13;;;;;;;2.8;1.3;;;;;;;31.14;34.43945;1002.433;;;;
2019/07/08 02:30:39;;;;;;;2.2;1.3;;;;;;;31.14;34.36621;1002.431;;;;
2019/07/08 02:33:59;;;;;;;1.9;1.2;;;;;;;31.11;34.13086;1002.438;;;;
2019/07/08 02:37:18;;;;;;;2.9;1.1;;;;;;;31.1;34.04297;1002.53;;;;
2019/07/08 02:38:01;;;;;;;2.2;1.2;;;;;;;31.1;33.95703;1002.532;;;;
2019/07/08 02:40:25;;;;;;;3.7;1.3;;;;;;;31.09;33.87109;1002.564;;;;
2019/07/08 02:42:49;;;;;;;2.4;1.2;;;;;;;31.09;33.69922;1002.537;;;;
2019/07/08 02:43:01;;;;;;;2.8;1.4;;;;;;;31.09;33.69922;1002.539;;;;
2019/07/08 02:45:26;;;;;;;4;1.5;;;;;;;31.08;33.57617;1002.547;;;;
2019/07/08 02:47:52;;;;;;;2.6;1.5;;;;;;;31.08;33.41699;1002.593;;;;
2019/07/08 02:51:11;;;;;;;3.9;1.3;;;;;;;31.08;33.16992;1002.578;;;;
2019/07/08 02:53:36;;;;;;;2.9;1.4;;;;;;;31.07;33.13379;1002.59;;;;
2019/07/08 02:56:02;;;;;;;3.1;1.4;;;;;;;31.08;32.99902;1002.624;;;;
2019/07/08 02:59:21;;;;;;;3.7;1.2;;;;;;;31.07;32.875;1002.6;;;;
2019/07/08 03:01:46;;;;;;;4.4;1.7;;;;;;;31.06;32.69043;1002.633;;;;
2019/07/08 03:02:29;;;;;;;3.8;1.4;;;;;;;31.05;32.72656;1002.637;;;;
2019/07/08 03:04:56;;;;;;;3.5;1.2;;;;;;;31.05;32.61621;1002.66;;;;
2019/07/08 03:07:22;;;;;;;5.4;1.3;;;;;;;31.04;32.54199;1002.638;;;;
2019/07/08 03:09:46;;;;;;;4.4;1.4;;;;;;;31.05;32.46875;1002.694;;;;
2019/07/08 03:12:11;;;;;;;2.7;1.4;;;;;;;31.03;32.36914;1002.723;;;;
2019/07/08 03:15:30;;;;;;;5.1;1.4;;;;;;;31.03;32.35742;1002.724;;;;
2019/07/08 03:18:49;;;;;;;3.1;1.6;;;;;;;31.02;32.2334;1002.725;;;;
2019/07/08 03:21:14;;;;;;;3.6;1.4;;;;;;;31.03;32.22266;1002.78;;;;
2019/07/08 03:23:39;;;;;;;4.4;1.5;;;;;;;31.05;32.29688;1002.848;;;;
2019/07/08 03:24:26;;;;;;;4.7;1.3;;;;;;;31.05;32.27246;1002.82;;;;
2019/07/08 03:26:53;;;;;;;4;1.3;;;;;;;31.08;32.09082;1002.857;;;;
2019/07/08 03:29:17;;;;;;;4.5;1.5;;;;;;;31.11;31.94531;1002.87;;;;
2019/07/08 03:31:43;;;;;;;4.6;1.5;;;;;;;31.11;31.9209;1002.913;;;;
2019/07/08 03:34:08;;;;;;;3.8;1.4;;;;;;;31.13;31.79883;1002.944;;;;
2019/07/08 03:37:27;;;;;;;3.5;1.3;;;;;;;31.14;31.75098;1002.96;;;;
2019/07/08 03:39:52;;;;;;;4.1;1.5;;;;;;;31.15;31.70215;1002.953;;;;
2019/07/08 03:42:17;;;;;;;3.2;1.4;;;;;;;31.15;31.5918;1002.928;;;;
2019/07/08 03:44:43;;;;;;;3.4;1.5;;;;;;;31.17;31.4707;1002.979;;;;
2019/07/08 03:48:01;;;;;;;3.7;1.3;;;;;;;31.18;31.45898;1003.075;;;;
2019/07/08 03:50:26;;;;;;;4.1;1.6;;;;;;;31.2;31.3125;1003.09;;;;
2019/07/08 03:52:52;;;;;;;3.6;1.4;;;;;;;31.19;31.22656;1003.113;;;;
2019/07/08 03:55:17;;;;;;;4.1;1.5;;;;;;;31.18;31.18848;1003.12;;;;
2019/07/08 03:57:43;;;;;;;4.8;1.7;;;;;;;31.18;31.07813;1003.144;;;;
2019/07/08 04:00:08;;;;;;;3.3;1.4;;;;;;;31.17;31.06543;1003.114;;;;
2019/07/08 04:03:27;;;;;;;3.4;1.5;;;;;;;31.17;30.90527;1003.161;;;;
2019/07/08 04:05:52;;;;;;;3.5;1.3;;;;;;;31.16;30.79395;1003.202;;;;
2019/07/08 04:09:11;;;;;;;3.5;1.4;;;;;;;31.16;30.62207;1003.235;;;;
2019/07/08 04:11:36;;;;;;;6.2;1.5;;;;;;;31.15;30.51172;1003.242;;;;
2019/07/08 04:14:01;;;;;;;3.4;1.5;;;;;;;31.15;30.51074;1003.238;;;;
2019/07/08 04:17:20;;;;;;;3.4;1.3;;;;;;;31.15;30.41309;1003.289;;;;
2019/07/08 04:19:45;;;;;;;3.1;1.4;;;;;;;31.16;30.53613;1003.314;;;;
2019/07/08 04:23:04;;;;;;;4.3;1.5;;;;;;;31.15;30.4248;1003.334;;;;
2019/07/08 04:25:30;;;;;;;3.5;1.4;;;;;;;31.14;30.37598;1003.347;;;;
2019/07/08 04:27:56;;;;;;;5.3;1.6;;;;;;;31.14;30.27734;1003.395;;;;
2019/07/08 04:30:20;;;;;;;4.4;1.3;;;;;;;31.14;30.27832;1003.461;;;;
2019/07/08 04:32:46;;;;;;;2.8;1.2;;;;;;;31.13;30.25195;1003.489;;;;
2019/07/08 04:35:11;;;;;;;3.2;1.5;;;;;;;31.12;30.20215;1003.526;;;;
2019/07/08 04:37:36;;;;;;;5;1.5;;;;;;;31.11;30.20215;1003.471;;;;
2019/07/08 04:37:50;;;;;;;4.7;1.3;;;;;;;31.12;30.16602;1003.51;;;;
2019/07/08 04:40:15;;;;;;;2.8;1.4;;;;;;;31.1;30.20117;1003.495;;;;
2019/07/08 04:40:26;;;;;;;2.8;1.4;;;;;;;31.11;30.22656;1003.5;;;;
2019/07/08 04:42:52;;;;;;;3.9;1.5;;;;;;;31.1;30.21387;1003.504;;;;
2019/07/08 04:45:17;;;;;;;3.9;1.3;;;;;;;31.12;30.14063;1003.534;;;;
2019/07/08 04:47:43;;;;;;;2.8;1.3;;;;;;;31.12;30.16602;1003.562;;;;
2019/07/08 04:50:09;;;;;;;5.5;1.6;;;;;;;31.12;30.15332;1003.585;;;;
2019/07/08 04:52:33;;;;;;;4.3;1.5;;;;;;;31.13;30.01855;1003.639;;;;
2019/07/08 04:54:59;;;;;;;4.1;1.4;;;;;;;31.14;29.9707;1003.636;;;;
2019/07/08 04:57:24;;;;;;;3.7;1.5;;;;;;;31.15;29.95898;1003.642;;;;
2019/07/08 04:59:49;;;;;;;4;1.5;;;;;;;31.17;29.83789;1003.648;;;;
2019/07/08 05:02:16;;;;;;;3.7;1.5;;;;;;;31.19;29.76465;1003.679;;;;
2019/07/08 05:04:41;;;;;;;3.2;1.3;;;;;;;31.21;29.70508;1003.735;;;;
2019/07/08 05:07:05;;;;;;;4.3;1.4;;;;;;;31.22;29.5957;1003.757;;;;
2019/07/08 05:10:25;;;;;;;5.3;1.6;;;;;;;31.23;29.50977;1003.772;;;;
2019/07/08 05:12:50;;;;;;;3.3;1.4;;;;;;;31.25;29.51172;1003.801;;;;
2019/07/08 05:15:15;;;;;;;4.1;1.4;;;;;;;31.28;29.47559;1003.842;;;;
2019/07/08 05:17:41;;;;;;;3.8;1.7;;;;;;;31.31;29.45313;1003.894;;;;
2019/07/08 05:20:06;;;;;;;3.7;1.4;;;;;;;31.33;29.33105;1003.915;;;;
2019/07/08 05:22:32;;;;;;;3;1.3;;;;;;;31.34;29.2959;1003.969;;;;
2019/07/08 05:24:56;;;;;;;3.4;1.6;;;;;;;31.37;29.26074;1004.017;;;;
2019/07/08 05:27:21;;;;;;;3.3;1.4;;;;;;;31.38;29.16309;1004.017;;;;
2019/07/08 05:29:48;;;;;;;3;1.5;;;;;;;31.4;29.06641;1004.067;;;;
2019/07/08 05:32:12;;;;;;;3.1;1.4;;;;;;;31.41;29.05566;1004.078;;;;
2019/07/08 05:34:38;;;;;;;6.5;1.6;;;;;;;31.42;28.98145;1004.047;;;;
2019/07/08 05:37:05;;;;;;;3.8;1.6;;;;;;;31.46;28.84863;1004.018;;;;
2019/07/08 05:37:33;;;;;;;4.5;1.7;;;;;;;31.46;28.88574;1003.98;;;;
2019/07/08 05:40:52;;;;;;;4.3;1.6;;;;;;;31.48;28.82617;1004.042;;;;
2019/07/08 05:43:35;;;;;;;4.8;1.6;;;;;;;31.5;28.72852;1004.111;;;;
2019/07/08 05:46:54;;;;;;;5;1.8;;;;;;;31.52;28.57031;1004.155;;;;
2019/07/08 05:50:13;;;;;;;4.6;1.6;;;;;;;31.53;28.55859;1004.153;;;;
2019/07/08 05:52:38;;;;;;;5.4;1.6;;;;;;;31.54;28.43555;1004.211;;;;
2019/07/08 05:55:03;;;;;;;4;1.6;;;;;;;31.55;28.33887;1004.246;;;;
2019/07/08 05:57:29;;;;;;;5.1;1.8;;;;;;;31.57;28.25391;1004.282;;;;
2019/07/08 05:59:54;;;;;;;4.2;1.7;;;;;;;31.56;28.16699;1004.251;;;;
2019/07/08 06:03:13;;;;;;;4.6;1.8;;;;;;;31.55;28.20313;1004.225;;;;
2019/07/08 06:05:38;;;;;;;7;1.9;;;;;;;31.55;28.16699;1004.214;;;;
2019/07/08 06:08:03;;;;;;;6.3;2.1;;;;;;;31.54;28.11719;1004.222;;;;
2019/07/08 06:11:22;;;;;;;6.3;1.9;;;;;;;31.51;27.98047;1004.293;;;;
2019/07/08 06:13:48;;;;;;;5.1;1.7;;;;;;;31.51;28.04102;1004.326;;;;
2019/07/08 06:16:13;;;;;;;4.5;1.6;;;;;;;31.51;27.85742;1004.384;;;;
2019/07/08 06:18:40;;;;;;;4.6;2.1;;;;;;;31.5;27.88086;1004.401;;;;
2019/07/08 06:21:04;;;;;;;4.7;1.7;;;;;;;31.49;27.84375;1004.42;;;;
2019/07/08 06:23:30;;;;;;;4.7;2;;;;;;;31.5;27.81934;1004.434;;;;
2019/07/08 06:24:15;;;;;;;6.7;1.9;;;;;;;31.5;27.80664;1004.416;;;;
2019/07/08 06:26:40;;;;;;;4.7;1.8;;;;;;;31.51;27.75879;1004.419;;;;
2019/07/08 06:29:05;;;;;;;5.2;1.8;;;;;;;31.51;27.77051;1004.435;;;;
2019/07/08 06:31:31;;;;;;;4.9;1.6;;;;;;;31.51;27.70898;1004.491;;;;
2019/07/08 06:33:56;;;;;;;6.2;1.9;;;;;;;31.51;27.70996;1004.502;;;;
2019/07/08 06:36:21;;;;;;;7.8;2;;;;;;;31.51;27.7334;1004.543;;;;
2019/07/08 06:38:46;;;;;;;6.1;1.7;;;;;;;31.48;27.70801;1004.583;;;;
2019/07/08 06:41:11;;;;;;;6.2;2;;;;;;;31.48;27.64648;1004.562;;;;
2019/07/08 06:43:36;;;;;;;6.7;2;;;;;;;31.56;26.12695;1004.562;;;;
2019/07/08 06:46:02;;;;;;;6.9;2.1;;;;;;;30.72;27.07227;1004.607;;;;
2019/07/08 06:49:20;;;;;;;6.8;1.9;;;;;;;29.95;28.23828;1004.48;;;;
2019/07/08 06:49:32;;;;;;;7.8;2.2;;;;;;;29.98;28.03223;1004.517;;;;
2019/07/08 06:51:57;;;;;;;6.2;1.9;;;;;;;29.7;28.98145;1004.477;;;;
2019/07/08 06:54:22;;;;;;;7.5;2.2;;;;;;;29.85;28.7832;1004.443;;;;
2019/07/08 06:56:48;;;;;;;5;1.9;;;;;;;30.05;28.3916;1004.484;;;;
2019/07/08 07:00:07;;;;;;;8.6;2.1;;;;;;;30.2;27.97266;1004.515;;;;
2019/07/08 07:02:32;;;;;;;6.5;2;;;;;;;30.29;27.37793;1004.493;;;;
2019/07/08 07:04:58;;;;;;;5.7;1.9;;;;;;;30.36;27.33203;1004.516;;;;
2019/07/08 07:07:23;;;;;;;5.8;1.9;;;;;;;30.4;26.85742;1004.527;;;;
2019/07/08 07:08:05;;;;;;;6.6;1.8;;;;;;;30.41;26.79688;1004.501;;;;
2019/07/08 07:10:31;;;;;;;8.3;1.7;;;;;;;30.47;26.53027;1004.56;;;;
2019/07/08 07:12:56;;;;;;;5;1.8;;;;;;;30.51;26.51953;1004.555;;;;
2019/07/08 07:13:11;;;;;;;6;1.6;;;;;;;30.5;26.4707;1004.53;;;;
2019/07/08 07:15:36;;;;;;;4.4;1.4;;;;;;;30.54;26.52148;1004.528;;;;
2019/07/08 07:18:01;;;;;;;5.7;1.8;;;;;;;30.55;26.41211;1004.549;;;;
2019/07/08 07:21:20;;;;;;;5.1;1.8;;;;;;;30.53;26.10449;1004.474;;;;
2019/07/08 07:23:45;;;;;;;6.8;1.6;;;;;;;30.54;26.38672;1004.486;;;;
2019/07/08 07:26:11;;;;;;;6.7;1.6;;;;;;;30.57;26.4873;1004.493;;;;
2019/07/08 07:28:37;;;;;;;6.5;1.7;;;;;;;30.61;26.50195;1004.491;;;;
2019/07/08 07:31:01;;;;;;;5;1.7;;;;;;;30.63;26.41699;1004.468;;;;
2019/07/08 07:33:27;;;;;;;7.8;1.8;;;;;;;30.64;26.33105;1004.418;;;;
2019/07/08 07:35:52;;;;;;;7.9;2;;;;;;;30.67;26.14941;1004.468;;;;
2019/07/08 07:36:00;;;;;;;5.2;1.6;;;;;;;30.67;26.1123;1004.453;;;;
2019/07/08 07:38:25;;;;;;;5.9;1.6;;;;;;;30.68;26.30957;1004.51;;;;
2019/07/08 07:38:32;;;;;;;6.1;1.6;;;;;;;30.69;26.23633;1004.57;;;;
2019/07/08 07:40:57;;;;;;;4.5;1.5;;;;;;;30.67;26.06348;1004.503;;;;
2019/07/08 07:43:23;;;;;;;8.3;1.7;;;;;;;30.66;25.93945;1004.53;;;;
2019/07/08 07:46:41;;;;;;;5.8;1.7;;;;;;;30.67;25.85449;1004.568;;;;
2019/07/08 07:49:07;;;;;;;5;1.4;;;;;;;30.68;25.58594;1004.599;;;;
2019/07/08 07:51:32;;;;;;;6.4;1.7;;;;;;;30.71;25.50098;1004.592;;;;
2019/07/08 07:52:03;;;;;;;8.1;1.7;;;;;;;30.71;25.50098;1004.63;;;;
2019/07/08 07:54:28;;;;;;;5.5;1.8;;;;;;;30.7;25.28027;1004.641;;;;
2019/07/08 07:54:37;;;;;;;6.1;1.8;;;;;;;30.7;25.26855;1004.623;;;;
2019/07/08 07:57:02;;;;;;;6.9;1.9;;;;;;;30.68;25.18066;1004.564;;;;
2019/07/08 07:59:28;;;;;;;5.5;1.6;;;;;;;30.72;25.12207;1004.611;;;;
2019/07/08 08:01:53;;;;;;;7.4;1.7;;;;;;;30.75;24.74316;1004.61;;;;
2019/07/08 08:04:18;;;;;;;4.9;1.4;;;;;;;30.79;24.64746;1004.61;;;;
2019/07/08 08:06:43;;;;;;;7.5;1.6;;;;;;;30.76;24.32617;1004.628;;;;
2019/07/08 08:10:56;;;;;;;6.3;1.4;;;;;;;30.72;24.37402;1004.656;;;;
2019/07/08 08:13:21;;;;;;;7.6;1.7;;;;;;;30.73;24.27637;1004.649;;;;
2019/07/08 08:15:47;;;;;;;5.1;1.4;;;;;;;30.72;23.8584;1004.651;;;;
2019/07/08 08:18:13;;;;;;;5.2;1.6;;;;;;;30.74;23.50293;1004.615;;;;
2019/07/08 08:20:37;;;;;;;4.6;1.4;;;;;;;30.63;23.30176;1004.615;;;;
2019/07/08 08:23:03;;;;;;;3.9;1.5;;;;;;;30.55;23.21191;1004.616;;;;
2019/07/08 08:25:28;;;;;;;5.6;1.7;;;;;;;30.57;23.34766;1004.631;;;;
2019/07/08 08:27:54;;;;;;;8.7;1.6;;;;;;;30.62;23.35059;1004.649;;;;
2019/07/08 08:30:19;;;;;;;5.3;1.5;;;;;;;30.65;23.32715;1004.647;;;;
2019/07/08 08:32:45;;;;;;;9.2;1.7;;;;;;;30.73;23.30664;1004.712;;;;
2019/07/08 08:35:10;;;;;;;5.2;1.7;;;;;;;30.73;23.17188;1004.649;;;;
2019/07/08 08:37:35;;;;;;;6.2;1.6;;;;;;;30.77;23.13672;1004.666;;;;
2019/07/08 08:40:00;;;;;;;6.4;1.5;;;;;;;30.77;23.01367;1004.666;;;;
2019/07/08 08:42:26;;;;;;;8.2;1.6;;;;;;;30.82;23.05371;1004.704;;;;
2019/07/08 08:44:51;;;;;;;6.2;1.3;;;;;;;30.84;23.41016;1004.683;;;;
2019/07/08 08:47:19;;;;;;;5.4;1.5;;;;;;;30.92;23.08301;1004.66;;;;
2019/07/08 08:49:42;;;;;;;7.4;1.4;;;;;;;30.96;23.09766;1004.661;;;;
2019/07/08 08:52:07;;;;;;;7.9;1.8;;;;;;;31.01;22.92871;1004.588;;;;
2019/07/08 08:54:33;;;;;;;8.5;1.8;;;;;;;30.96;22.80273;1004.588;;;;
2019/07/08 08:57:53;;;;;;;7.6;1.6;;;;;;;30.95;22.91309;1004.553;;;;
2019/07/08 09:00:18;;;;;;;6.6;1.6;;;;;;;30.94;22.76563;1004.553;;;;
2019/07/08 09:02:44;;;;;;;6.5;1.6;;;;;;;30.9;22.76367;1004.673;;;;
2019/07/08 09:06:02;;;;;;;5.3;1.6;;;;;;;30.93;22.71582;1004.617;;;;
2019/07/08 09:08:28;;;;;;;4.8;1.5;;;;;;;30.92;22.74023;1004.644;;;;
2019/07/08 09:10:53;;;;;;;5.2;1.5;;;;;;;30.91;22.77637;1004.693;;;;
2019/07/08 09:13:18;;;;;;;5.9;1.5;;;;;;;30.93;22.55566;1004.688;;;;
2019/07/08 09:17:31;;;;;;;6;1.7;;;;;;;30.92;22.43359;1004.687;;;;
2019/07/08 09:19:56;;;;;;;5.5;1.4;;;;;;;30.89;22.50488;1004.681;;;;
2019/07/08 09:23:15;;;;;;;5.8;1.6;;;;;;;30.82;22.70996;1004.617;;;;
2019/07/08 09:26:34;;;;;;;5.6;1.5;;;;;;;30.89;22.65234;1004.667;;;;
2019/07/08 09:28:59;;;;;;;5.4;1.4;;;;;;;30.87;22.84766;1004.7;;;;
2019/07/08 09:31:28;;;;;;;5.2;1.4;;;;;;;30.9;23.0459;1004.668;;;;
2019/07/08 09:33:55;;;;;;;6.5;1.3;;;;;;;30.87;22.93359;1004.687;;;;
2019/07/08 09:36:20;;;;;;;5;1.3;;;;;;;30.87;22.87207;1004.714;;;;
2019/07/08 09:38:48;;;;;;;5.1;1.5;;;;;;;30.86;22.7373;1004.707;;;;
2019/07/08 09:41:11;;;;;;;6.3;1.7;;;;;;;30.88;22.65234;1004.719;;;;
2019/07/08 09:43:37;;;;;;;3.9;1.3;;;;;;;30.88;22.66406;1004.724;;;;
2019/07/08 09:46:02;;;;;;;4.8;1.4;;;;;;;30.9;22.7998;1004.728;;;;
2019/07/08 09:48:27;;;;;;;5.8;1.4;;;;;;;30.96;22.76563;1004.704;;;;
2019/07/08 09:50:54;;;;;;;4;1.4;;;;;;;30.99;22.70605;1004.718;;;;
2019/07/08 09:53:18;;;;;;;5.8;1.4;;;;;;;30.98;22.7793;1004.722;;;;
2019/07/08 09:55:43;;;;;;;7.2;1.3;;;;;;;30.97;23.06152;1004.71;;;;
2019/07/08 09:58:09;;;;;;;4.5;1.8;;;;;;;30.96;22.88965;1004.732;;;;
2019/07/08 10:00:34;;;;;;;5.5;1.6;;;;;;;30.96;22.9375;1004.705;;;;
2019/07/08 10:03:01;;;;;;;5.6;1.4;;;;;;;30.99;22.96387;1004.633;;;;
2019/07/08 10:05:46;;;;;;;5.3;1.5;;;;;;;30.91;23.09473;1004.676;;;;
2019/07/08 10:08:29;;;;;;;6.9;1.4;;;;;;;30.91;22.91113;1004.659;;;;
2019/07/08 10:11:07;;;;;;;5.7;1.3;;;;;;;30.8;22.9541;1004.658;;;;
2019/07/08 10:13:53;;;;;;;6.4;1.5;;;;;;;30.82;23.06641;1004.607;;;;
2019/07/08 10:16:37;;;;;;;4.1;1.3;;;;;;;30.84;22.84668;1004.684;;;;
2019/07/08 10:19:03;;;;;;;6.5;1.5;;;;;;;30.86;23.74316;1004.717;;;;
2019/07/08 10:21:29;;;;;;;7.9;1.6;;;;;;;31.01;24.7207;1004.662;;;;
2019/07/08 10:23:53;;;;;;;15.3;2;;;;;;;30.83;28.57617;1004.645;;;;
2019/07/08 10:27:12;;;;;;;7.8;1.3;;;;;;;28.81;25.35742;1004.558;;;;
2019/07/08 10:29:37;;;;;;;7.8;1.9;;;;;;;28.4;25.93262;1004.59;;;;
2019/07/08 10:32:02;;;;;;;5.2;1.5;;;;;;;28.23;25.95996;1004.605;;;;
2019/07/08 10:34:28;;;;;;;3.9;1.3;;;;;;;28.16;26.05273;1004.571;;;;
2019/07/08 10:36:54;;;;;;;8;1.7;;;;;;;27.98;26.49414;1004.626;;;;
2019/07/08 10:39:19;;;;;;;5.6;1.5;;;;;;;27.95;26.44336;1004.618;;;;
2019/07/08 10:41:44;;;;;;;6;1.2;;;;;;;27.84;26.60742;1004.612;;;;
2019/07/08 10:44:10;;;;;;;7.6;1.5;;;;;;;27.84;26.63184;1004.596;;;;
2019/07/08 10:46:35;;;;;;;4.9;1.4;;;;;;;27.85;26.64453;1004.599;;;;
2019/07/08 10:49:00;;;;;;;5.7;1.4;;;;;;;27.9;26.64746;1004.572;;;;
2019/07/08 10:51:25;;;;;;;6.5;1.4;;;;;;;27.83;26.66699;1004.545;;;;
2019/07/08 10:54:44;;;;;;;3.4;1.4;;;;;;;27.88;26.59766;1004.572;;;;
2019/07/08 10:57:12;;;;;;;4.7;1.3;;;;;;;27.84;26.77832;1004.609;;;;
2019/07/08 10:59:35;;;;;;;4.3;1.4;;;;;;;27.77;26.81055;1004.605;;;;
2019/07/08 11:02:01;;;;;;;3.7;1.3;;;;;;;27.83;26.75293;1004.558;;;;
2019/07/08 11:04:25;;;;;;;4.8;1.3;;;;;;;27.78;26.61621;1004.495;;;;
2019/07/08 11:06:51;;;;;;;4.6;1.5;;;;;;;27.58;27.53027;1004.542;;;;
2019/07/08 11:09:16;;;;;;;5.1;1.6;;;;;;;27.51;27.47754;1004.541;;;;
2019/07/08 11:11:41;;;;;;;4.9;1.6;;;;;;;27.68;27.1709;1004.517;;;;
2019/07/08 11:14:07;;;;;;;8.1;1.7;;;;;;;27.73;27.23438;1004.577;;;;
2019/07/08 11:16:31;;;;;;;7.4;1.5;;;;;;;27.74;27.125;1004.523;;;;
2019/07/08 11:18:58;;;;;;;5.6;1.4;;;;;;;27.77;27.17578;1004.513;;;;
2019/07/08 11:21:22;;;;;;;7.4;1.6;;;;;;;27.77;27.12695;1004.51;;;;
2019/07/08 11:23:48;;;;;;;5.1;1.3;;;;;;;27.79;27.0791;1004.548;;;;
2019/07/08 11:27:07;;;;;;;3.9;1.6;;;;;;;27.82;27.05762;1004.579;;;;
2019/07/08 11:29:33;;;;;;;4.9;1.4;;;;;;;27.84;27.19238;1004.578;;;;
2019/07/08 11:32:51;;;;;;;7.5;1.6;;;;;;;27.85;26.96094;1004.544;;;;
2019/07/08 11:35:18;;;;;;;7.5;1.5;;;;;;;27.88;27.06055;1004.573;;;;
2019/07/08 11:37:43;;;;;;;6.6;1.4;;;;;;;27.89;27.04883;1004.686;;;;
2019/07/08 11:40:11;;;;;;;7;1.6;;;;;;;27.82;27.08203;1004.591;;;;
2019/07/08 11:42:36;;;;;;;6.8;1.7;;;;;;;27.85;27.05859;1004.602;;;;
2019/07/08 11:42:44;;;;;;;6.4;1.7;;;;;;;27.85;27.04688;1004.597;;;;
2019/07/08 11:45:09;;;;;;;8.1;1.4;;;;;;;27.87;26.97559;1004.6;;;;
2019/07/08 11:45:20;;;;;;;7.2;1.5;;;;;;;27.87;27.09668;1004.583;;;;
2019/07/08 11:47:49;;;;;;;8.7;1.8;;;;;;;27.86;27.20605;1004.536;;;;
2019/07/08 11:51:07;;;;;;;6.8;1.4;;;;;;;27.89;27.03711;1004.513;;;;
2019/07/08 11:53:33;;;;;;;7.2;1.4;;;;;;;27.92;26.82031;1004.518;;;;
2019/07/08 11:55:58;;;;;;;7.8;1.9;;;;;;;27.92;27.07617;1004.537;;;;
2019/07/08 11:58:23;;;;;;;8.3;1.7;;;;;;;27.93;26.90527;1004.488;;;;
2019/07/08 12:00:49;;;;;;;6.4;1.4;;;;;;;27.95;27.12598;1004.47;;;;
2019/07/08 12:03:14;;;;;;;5.8;1.4;;;;;;;27.95;27.05273;1004.516;;;;
2019/07/08 12:05:40;;;;;;;5.5;1.4;;;;;;;27.95;26.89453;1004.451;;;;
2019/07/08 12:08:10;;;;;;;8.4;1.6;;;;;;;27.91;26.9043;1004.497;;;;
2019/07/08 12:10:36;;;;;;;6.7;1.5;;;;;;;27.9;27.15918;1004.511;;;;
2019/07/08 12:13:01;;;;;;;6.3;1.6;;;;;;;27.92;27.17383;1004.475;;;;
2019/07/08 12:15:26;;;;;;;3.7;1.4;;;;;;;27.94;27.06445;1004.468;;;;
2019/07/08 12:18:46;;;;;;;5.9;1.8;;;;;;;27.97;26.98145;1004.381;;;;
2019/07/08 12:21:11;;;;;;;5.7;1.6;;;;;;;27.95;26.79688;1004.375;;;;
2019/07/08 12:23:36;;;;;;;5.4;1.2;;;;;;;27.97;26.67578;1004.306;;;;
2019/07/08 12:26:01;;;;;;;5.1;1.4;;;;;;;27.9;26.62305;1004.286;;;;
2019/07/08 12:28:28;;;;;;;8.8;1.7;;;;;;;27.92;26.75879;1004.287;;;;
2019/07/08 12:30:52;;;;;;;6.6;1.3;;;;;;;27.93;27.08789;1004.296;;;;
2019/07/08 12:31:37;;;;;;;4.9;1.3;;;;;;;27.95;26.6875;1004.228;;;;
2019/07/08 12:34:06;;;;;;;3.8;1.3;;;;;;;27.95;26.62598;1004.311;;;;
2019/07/08 12:36:33;;;;;;;7.1;1.3;;;;;;;27.93;26.27148;1004.246;;;;
2019/07/08 12:38:58;;;;;;;5.8;1.2;;;;;;;27.95;26.3584;1004.17;;;;
2019/07/08 12:41:24;;;;;;;4;1.3;;;;;;;27.97;26.0791;1004.132;;;;
2019/07/08 12:41:43;;;;;;;4.2;1.1;;;;;;;27.98;26.01855;1004.15;;;;
2019/07/08 12:44:09;;;;;;;5.1;1.6;;;;;;;27.99;26.43359;1004.127;;;;
2019/07/08 12:44:19;;;;;;;5.3;1.5;;;;;;;28;26.55664;1004.143;;;;
2019/07/08 12:46:44;;;;;;;3.9;1.2;;;;;;;28;26.36133;1004.151;;;;
2019/07/08 12:49:10;;;;;;;5.2;1.2;;;;;;;28;26.59277;1004.145;;;;
2019/07/08 12:51:35;;;;;;;5.4;1.1;;;;;;;28;26.28809;1004.107;;;;
2019/07/08 12:54:02;;;;;;;4.6;1.2;;;;;;;28.02;26.54492;1004.093;;;;
2019/07/08 12:56:25;;;;;;;8.5;1.3;;;;;;;28.02;26.42285;1004.13;;;;
2019/07/08 12:58:51;;;;;;;4.2;1.2;;;;;;;28.03;26.76563;1003.979;;;;
2019/07/08 13:01:15;;;;;;;4.4;1.1;;;;;;;28.11;27.51367;1004.068;;;;
2019/07/08 13:03:42;;;;;;;12.8;1.4;;;;;;;28.14;27.08887;1004.04;;;;
2019/07/08 13:06:08;;;;;;;5.1;1.4;;;;;;;28.11;26.87988;1003.995;;;;
2019/07/08 13:08:33;;;;;;;7.4;1.4;;;;;;;28.1;26.83008;1003.961;;;;
2019/07/08 13:08:42;;;;;;;8.4;1.6;;;;;;;28.1;26.81836;1003.942;;;;
2019/07/08 13:11:07;;;;;;;10.6;1.3;;;;;;;28.12;26.70898;1003.952;;;;
2019/07/08 13:13:33;;;;;;;4;1.2;;;;;;;28.1;26.64746;1003.923;;;;
2019/07/08 13:15:58;;;;;;;3.5;1.2;;;;;;;28.1;26.7207;1003.925;;;;
2019/07/08 13:19:19;;;;;;;4.1;1.3;;;;;;;28.05;26.55859;1003.916;;;;
2019/07/08 13:21:51;;;;;;;4.4;1.1;;;;;;;28.07;26.41406;1003.94;;;;
2019/07/08 13:24:17;;;;;;;3.7;1;;;;;;;28.04;26.52148;1003.911;;;;
2019/07/08 13:26:41;;;;;;;5.7;1.2;;;;;;;28.05;26.57031;1003.877;;;;
2019/07/08 13:29:06;;;;;;;3.4;1.1;;;;;;;28.06;26.88867;1003.845;;;;
2019/07/08 13:31:32;;;;;;;4.5;1.2;;;;;;;28.04;26.68066;1003.811;;;;
2019/07/08 13:33:57;;;;;;;7.2;1.2;;;;;;;28.05;26.48535;1003.815;;;;
2019/07/08 13:37:16;;;;;;;4.4;1.2;;;;;;;28.06;26.55957;1003.861;;;;
2019/07/08 13:40:36;;;;;;;5;1.2;;;;;;;28.05;26.64453;1003.867;;;;
2019/07/08 13:43:02;;;;;;;4.3;1.1;;;;;;;28.04;26.57031;1003.761;;;;
2019/07/08 13:45:27;;;;;;;5.4;1.1;;;;;;;28.01;26.4834;1003.804;;;;
2019/07/08 13:47:52;;;;;;;5.2;1.2;;;;;;;28;26.4707;1003.791;;;;
2019/07/08 13:50:17;;;;;;;4.2;1.4;;;;;;;27.98;26.34766;1003.845;;;;
2019/07/08 13:52:42;;;;;;;4.4;1.2;;;;;;;27.97;26.46875;1003.859;;;;
2019/07/08 13:55:08;;;;;;;4.3;1.2;;;;;;;27.97;26.50586;1003.799;;;;
2019/07/08 13:57:33;;;;;;;3.7;1.5;;;;;;;27.97;26.87109;1003.727;;;;
2019/07/08 13:59:59;;;;;;;3.3;1.2;;;;;;;27.99;26.33594;1003.74;;;;
2019/07/08 14:02:24;;;;;;;3.9;1;;;;;;;27.98;26.43262;1003.745;;;;
2019/07/08 14:04:50;;;;;;;9.4;1.6;;;;;;;27.99;26.34766;1003.711;;;;
2019/07/08 14:07:17;;;;;;;4.7;1.3;;;;;;;27.99;26.44531;1003.653;;;;